sensor_id;sensor_type;location;lat;lon;timestamp;P1;durP1;ratioP1;P2;durP2;ratioP2
44366;SDS011;30086;57.660;12.000;2022-08-03T00:02:25;26.33;;;12.50;;
44366;SDS011;30086;57.660;12.000;2022-08-03T00:04:51;26.02;;;12.23;;
44366;SDS011;30086;57.660;12.000;2022-08-03T00:07:17;24.60;;;13.85;;
44366;SDS011;30086;57.660;12.000;2022-08-03T00:09:43;23.80;;;14.27;;
44366;SDS011;30086;57.660;12.000;2022-08-03T00:12:09;27.20;;;13.65;;
44366;SDS011;30086;57.660;12.000;2022-08-03T00:14:35;23.73;;;12.63;;
44366;SDS011;30086;57.660;12.000;2022-08-03T00:17:01;22.10;;;12.57;;
44366;SDS011;30086;57.660;12.000;2022-08-03T00:19:27;23.58;;;14.43;;
44366;SDS011;30086;57.660;12.000;2022-08-03T00:21:53;24.33;;;11.77;;
44366;SDS011;30086;57.660;12.000;2022-08-03T00:24:19;20.25;;;11.82;;
44366;SDS011;30086;57.660;12.000;2022-08-03T00:26:45;18.08;;;11.75;;
44366;SDS011;30086;57.660;12.000;2022-08-03T00:29:11;19.77;;;9.98;;
44366;SDS011;30086;57.660;12.000;2022-08-03T00:31:37;27.45;;;10.32;;
44366;SDS011;30086;57.660;12.000;2022-08-03T00:34:04;20.30;;;9.93;;
44366;SDS011;30086;57.660;12.000;2022-08-03T00:36:30;20.60;;;14.30;;
44366;SDS011;30086;57.660;12.000;2022-08-03T00:38:56;24.60;;;12.13;;
44366;SDS011;30086;57.660;12.000;2022-08-03T00:41:22;19.45;;;11.05;;
44366;SDS011;30086;57.660;12.000;2022-08-03T00:43:49;24.85;;;11.63;;
44366;SDS011;30086;57.660;12.000;2022-08-03T00:46:14;23.20;;;11.52;;
44366;SDS011;30086;57.660;12.000;2022-08-03T00:48:41;17.88;;;12.43;;
44366;SDS011;30086;57.660;12.000;2022-08-03T00:51:07;18.55;;;11.07;;
44366;SDS011;30086;57.660;12.000;2022-08-03T00:53:33;22.83;;;11.25;;
44366;SDS011;30086;57.660;12.000;2022-08-03T00:55:59;22.17;;;11.43;;
44366;SDS011;30086;57.660;12.000;2022-08-03T00:58:25;20.70;;;11.13;;
44366;SDS011;30086;57.660;12.000;2022-08-03T01:00:51;19.63;;;11.63;;
44366;SDS011;30086;57.660;12.000;2022-08-03T01:03:17;20.40;;;11.63;;
44366;SDS011;30086;57.660;12.000;2022-08-03T01:16:50;25.83;;;13.27;;
44366;SDS011;30086;57.660;12.000;2022-08-03T01:22:06;25.70;;;11.95;;
44366;SDS011;30086;57.660;12.000;2022-08-03T01:27:21;19.45;;;11.45;;
44366;SDS011;30086;57.660;12.000;2022-08-03T01:29:51;24.80;;;11.00;;
44366;SDS011;30086;57.660;12.000;2022-08-03T01:32:19;23.83;;;11.77;;
44366;SDS011;30086;57.660;12.000;2022-08-03T01:34:46;24.05;;;10.77;;
44366;SDS011;30086;57.660;12.000;2022-08-03T01:37:15;18.90;;;10.40;;
44366;SDS011;30086;57.660;12.000;2022-08-03T01:39:42;18.05;;;11.50;;
44366;SDS011;30086;57.660;12.000;2022-08-03T01:42:09;21.05;;;10.95;;
44366;SDS011;30086;57.660;12.000;2022-08-03T01:44:37;21.08;;;12.23;;
44366;SDS011;30086;57.660;12.000;2022-08-03T01:47:05;17.25;;;9.35;;
44366;SDS011;30086;57.660;12.000;2022-08-03T01:49:38;21.90;;;10.50;;
44366;SDS011;30086;57.660;12.000;2022-08-03T01:52:05;19.73;;;10.65;;
44366;SDS011;30086;57.660;12.000;2022-08-03T01:54:35;23.50;;;11.05;;
44366;SDS011;30086;57.660;12.000;2022-08-03T01:57:02;18.98;;;10.63;;
44366;SDS011;30086;57.660;12.000;2022-08-03T01:59:29;20.27;;;11.15;;
44366;SDS011;30086;57.660;12.000;2022-08-03T02:01:55;19.25;;;11.25;;
44366;SDS011;30086;57.660;12.000;2022-08-03T02:04:22;18.35;;;10.27;;
44366;SDS011;30086;57.660;12.000;2022-08-03T02:06:49;21.83;;;10.77;;
44366;SDS011;30086;57.660;12.000;2022-08-03T02:09:16;15.07;;;9.32;;
44366;SDS011;30086;57.660;12.000;2022-08-03T02:11:44;19.20;;;10.43;;
44366;SDS011;30086;57.660;12.000;2022-08-03T02:14:11;27.15;;;10.35;;
44366;SDS011;30086;57.660;12.000;2022-08-03T02:16:39;17.77;;;10.25;;
44366;SDS011;30086;57.660;12.000;2022-08-03T02:19:05;20.63;;;10.88;;
44366;SDS011;30086;57.660;12.000;2022-08-03T02:21:32;25.00;;;10.85;;
44366;SDS011;30086;57.660;12.000;2022-08-03T02:24:00;20.08;;;11.95;;
44366;SDS011;30086;57.660;12.000;2022-08-03T02:26:28;26.33;;;11.65;;
44366;SDS011;30086;57.660;12.000;2022-08-03T02:28:55;24.65;;;13.70;;
44366;SDS011;30086;57.660;12.000;2022-08-03T02:31:26;21.25;;;12.63;;
44366;SDS011;30086;57.660;12.000;2022-08-03T02:33:55;24.92;;;12.80;;
44366;SDS011;30086;57.660;12.000;2022-08-03T02:36:26;36.78;;;13.90;;
44366;SDS011;30086;57.660;12.000;2022-08-03T02:38:56;30.65;;;14.57;;
44366;SDS011;30086;57.660;12.000;2022-08-03T02:41:24;26.55;;;14.48;;
44366;SDS011;30086;57.660;12.000;2022-08-03T02:43:53;34.88;;;14.68;;
44366;SDS011;30086;57.660;12.000;2022-08-03T02:46:21;20.65;;;10.25;;
44366;SDS011;30086;57.660;12.000;2022-08-03T02:48:49;32.75;;;15.18;;
44366;SDS011;30086;57.660;12.000;2022-08-03T02:51:17;31.02;;;14.35;;
44366;SDS011;30086;57.660;12.000;2022-08-03T02:53:44;36.58;;;16.45;;
44366;SDS011;30086;57.660;12.000;2022-08-03T02:56:11;33.13;;;15.82;;
44366;SDS011;30086;57.660;12.000;2022-08-03T02:58:38;33.75;;;16.45;;
44366;SDS011;30086;57.660;12.000;2022-08-03T03:01:04;35.60;;;16.13;;
44366;SDS011;30086;57.660;12.000;2022-08-03T03:03:32;35.50;;;17.50;;
44366;SDS011;30086;57.660;12.000;2022-08-03T03:05:58;35.78;;;16.55;;
44366;SDS011;30086;57.660;12.000;2022-08-03T03:08:25;33.65;;;16.52;;
44366;SDS011;30086;57.660;12.000;2022-08-03T03:10:52;31.73;;;16.35;;
44366;SDS011;30086;57.660;12.000;2022-08-03T03:13:19;36.88;;;19.55;;
44366;SDS011;30086;57.660;12.000;2022-08-03T03:15:46;36.35;;;16.67;;
44366;SDS011;30086;57.660;12.000;2022-08-03T03:18:12;42.33;;;19.90;;
44366;SDS011;30086;57.660;12.000;2022-08-03T03:20:41;41.35;;;17.80;;
44366;SDS011;30086;57.660;12.000;2022-08-03T03:23:08;39.33;;;18.40;;
44366;SDS011;30086;57.660;12.000;2022-08-03T03:25:34;41.65;;;20.42;;
44366;SDS011;30086;57.660;12.000;2022-08-03T03:28:01;42.35;;;18.50;;
44366;SDS011;30086;57.660;12.000;2022-08-03T03:30:27;38.42;;;17.73;;
44366;SDS011;30086;57.660;12.000;2022-08-03T03:32:54;40.35;;;19.88;;
44366;SDS011;30086;57.660;12.000;2022-08-03T03:35:20;40.15;;;20.58;;
44366;SDS011;30086;57.660;12.000;2022-08-03T03:37:46;43.20;;;19.13;;
44366;SDS011;30086;57.660;12.000;2022-08-03T03:40:12;36.95;;;20.10;;
44366;SDS011;30086;57.660;12.000;2022-08-03T03:42:38;42.00;;;20.10;;
44366;SDS011;30086;57.660;12.000;2022-08-03T03:45:05;41.03;;;18.45;;
44366;SDS011;30086;57.660;12.000;2022-08-03T03:47:35;27.48;;;16.95;;
44366;SDS011;30086;57.660;12.000;2022-08-03T03:50:02;40.38;;;18.48;;
44366;SDS011;30086;57.660;12.000;2022-08-03T03:52:28;32.78;;;16.50;;
44366;SDS011;30086;57.660;12.000;2022-08-03T03:54:54;34.47;;;17.23;;
44366;SDS011;30086;57.660;12.000;2022-08-03T03:57:20;32.83;;;16.58;;
44366;SDS011;30086;57.660;12.000;2022-08-03T03:59:46;36.25;;;16.38;;
44366;SDS011;30086;57.660;12.000;2022-08-03T04:02:13;29.05;;;14.82;;
44366;SDS011;30086;57.660;12.000;2022-08-03T04:04:39;0.20;;;0.20;;
44366;SDS011;30086;57.660;12.000;2022-08-03T04:07:24;0.10;;;0.10;;
44366;SDS011;30086;57.660;12.000;2022-08-03T04:10:12;0.00;;;0.00;;
44366;SDS011;30086;57.660;12.000;2022-08-03T04:12:57;0.00;;;0.00;;
44366;SDS011;30086;57.660;12.000;2022-08-03T04:15:23;0.38;;;0.38;;
44366;SDS011;30086;57.660;12.000;2022-08-03T04:17:52;0.08;;;0.08;;
44366;SDS011;30086;57.660;12.000;2022-08-03T04:20:19;0.00;;;0.00;;
44366;SDS011;30086;57.660;12.000;2022-08-03T04:22:47;0.40;;;0.40;;
44366;SDS011;30086;57.660;12.000;2022-08-03T04:25:14;0.52;;;0.52;;
44366;SDS011;30086;57.660;12.000;2022-08-03T04:27:43;0.00;;;0.00;;
44366;SDS011;30086;57.660;12.000;2022-08-03T04:30:09;0.00;;;0.00;;
44366;SDS011;30086;57.660;12.000;2022-08-03T04:32:36;0.00;;;0.00;;
44366;SDS011;30086;57.660;12.000;2022-08-03T04:35:03;0.28;;;0.28;;
44366;SDS011;30086;57.660;12.000;2022-08-03T04:39:57;0.00;;;0.00;;
44366;SDS011;30086;57.660;12.000;2022-08-03T04:42:24;0.00;;;0.00;;
44366;SDS011;30086;57.660;12.000;2022-08-03T04:44:50;0.03;;;0.03;;
44366;SDS011;30086;57.660;12.000;2022-08-03T04:47:18;1.13;;;1.02;;
44366;SDS011;30086;57.660;12.000;2022-08-03T04:49:44;0.00;;;0.00;;
44366;SDS011;30086;57.660;12.000;2022-08-03T04:52:10;0.00;;;0.00;;
44366;SDS011;30086;57.660;12.000;2022-08-03T04:54:40;0.10;;;0.10;;
44366;SDS011;30086;57.660;12.000;2022-08-03T04:57:07;0.00;;;0.00;;
44366;SDS011;30086;57.660;12.000;2022-08-03T04:59:33;0.00;;;0.00;;
44366;SDS011;30086;57.660;12.000;2022-08-03T05:01:59;0.00;;;0.00;;
44366;SDS011;30086;57.660;12.000;2022-08-03T05:04:25;0.28;;;0.28;;
44366;SDS011;30086;57.660;12.000;2022-08-03T05:06:51;0.17;;;0.17;;
44366;SDS011;30086;57.660;12.000;2022-08-03T05:09:17;0.00;;;0.00;;
44366;SDS011;30086;57.660;12.000;2022-08-03T05:11:43;0.00;;;0.00;;
44366;SDS011;30086;57.660;12.000;2022-08-03T05:14:09;0.00;;;0.00;;
44366;SDS011;30086;57.660;12.000;2022-08-03T05:16:35;0.03;;;0.03;;
44366;SDS011;30086;57.660;12.000;2022-08-03T05:19:01;0.13;;;0.13;;
44366;SDS011;30086;57.660;12.000;2022-08-03T05:21:27;0.10;;;0.10;;
44366;SDS011;30086;57.660;12.000;2022-08-03T05:23:53;0.40;;;0.35;;
44366;SDS011;30086;57.660;12.000;2022-08-03T05:26:19;0.00;;;0.00;;
44366;SDS011;30086;57.660;12.000;2022-08-03T05:28:45;0.20;;;0.20;;
44366;SDS011;30086;57.660;12.000;2022-08-03T05:31:11;0.10;;;0.10;;
44366;SDS011;30086;57.660;12.000;2022-08-03T05:33:37;0.15;;;0.15;;
44366;SDS011;30086;57.660;12.000;2022-08-03T05:36:04;0.00;;;0.00;;
44366;SDS011;30086;57.660;12.000;2022-08-03T05:38:30;0.35;;;0.30;;
44366;SDS011;30086;57.660;12.000;2022-08-03T05:40:57;0.35;;;0.35;;
44366;SDS011;30086;57.660;12.000;2022-08-03T05:43:23;0.95;;;0.65;;
44366;SDS011;30086;57.660;12.000;2022-08-03T05:45:49;0.13;;;0.13;;
44366;SDS011;30086;57.660;12.000;2022-08-03T05:48:15;0.22;;;0.22;;
44366;SDS011;30086;57.660;12.000;2022-08-03T05:50:41;0.10;;;0.10;;
44366;SDS011;30086;57.660;12.000;2022-08-03T05:53:07;0.05;;;0.05;;
44366;SDS011;30086;57.660;12.000;2022-08-03T05:55:33;0.00;;;0.00;;
44366;SDS011;30086;57.660;12.000;2022-08-03T05:57:59;0.00;;;0.00;;
44366;SDS011;30086;57.660;12.000;2022-08-03T06:00:27;0.20;;;0.20;;
44366;SDS011;30086;57.660;12.000;2022-08-03T06:02:54;0.55;;;0.55;;
44366;SDS011;30086;57.660;12.000;2022-08-03T06:05:20;0.85;;;0.85;;
44366;SDS011;30086;57.660;12.000;2022-08-03T06:07:46;0.68;;;0.68;;
44366;SDS011;30086;57.660;12.000;2022-08-03T06:10:12;0.00;;;0.00;;
44366;SDS011;30086;57.660;12.000;2022-08-03T06:12:38;0.25;;;0.25;;
44366;SDS011;30086;57.660;12.000;2022-08-03T06:15:05;0.10;;;0.10;;
44366;SDS011;30086;57.660;12.000;2022-08-03T06:17:31;0.00;;;0.00;;
44366;SDS011;30086;57.660;12.000;2022-08-03T06:19:57;0.25;;;0.25;;
44366;SDS011;30086;57.660;12.000;2022-08-03T06:22:23;0.25;;;0.25;;
44366;SDS011;30086;57.660;12.000;2022-08-03T06:24:49;0.00;;;0.00;;
44366;SDS011;30086;57.660;12.000;2022-08-03T06:27:15;0.00;;;0.00;;
44366;SDS011;30086;57.660;12.000;2022-08-03T06:29:41;0.65;;;0.52;;
44366;SDS011;30086;57.660;12.000;2022-08-03T06:32:07;0.13;;;0.13;;
44366;SDS011;30086;57.660;12.000;2022-08-03T06:34:33;0.28;;;0.28;;
44366;SDS011;30086;57.660;12.000;2022-08-03T06:36:59;0.00;;;0.00;;
44366;SDS011;30086;57.660;12.000;2022-08-03T06:39:25;0.00;;;0.00;;
44366;SDS011;30086;57.660;12.000;2022-08-03T06:41:52;0.00;;;0.00;;
44366;SDS011;30086;57.660;12.000;2022-08-03T06:44:18;0.00;;;0.00;;
44366;SDS011;30086;57.660;12.000;2022-08-03T06:46:44;0.22;;;0.22;;
44366;SDS011;30086;57.660;12.000;2022-08-03T06:49:11;0.00;;;0.00;;
44366;SDS011;30086;57.660;12.000;2022-08-03T06:51:37;0.17;;;0.17;;
44366;SDS011;30086;57.660;12.000;2022-08-03T06:54:03;0.10;;;0.10;;
44366;SDS011;30086;57.660;12.000;2022-08-03T06:56:29;0.00;;;0.00;;
44366;SDS011;30086;57.660;12.000;2022-08-03T06:58:55;0.00;;;0.00;;
44366;SDS011;30086;57.660;12.000;2022-08-03T07:01:21;0.10;;;0.10;;
44366;SDS011;30086;57.660;12.000;2022-08-03T07:03:47;0.00;;;0.00;;
44366;SDS011;30086;57.660;12.000;2022-08-03T07:06:13;0.55;;;0.15;;
44366;SDS011;30086;57.660;12.000;2022-08-03T07:08:39;19.13;;;8.05;;
44366;SDS011;30086;57.660;12.000;2022-08-03T07:11:05;20.15;;;7.88;;
44366;SDS011;30086;57.660;12.000;2022-08-03T07:13:31;22.73;;;7.10;;
44366;SDS011;30086;57.660;12.000;2022-08-03T07:15:57;20.30;;;7.78;;
44366;SDS011;30086;57.660;12.000;2022-08-03T07:18:23;20.55;;;7.63;;
44366;SDS011;30086;57.660;12.000;2022-08-03T07:20:49;17.70;;;7.28;;
44366;SDS011;30086;57.660;12.000;2022-08-03T07:23:16;26.02;;;7.80;;
44366;SDS011;30086;57.660;12.000;2022-08-03T07:25:42;17.92;;;6.53;;
44366;SDS011;30086;57.660;12.000;2022-08-03T07:28:08;18.73;;;7.72;;
44366;SDS011;30086;57.660;12.000;2022-08-03T07:30:34;17.15;;;7.80;;
44366;SDS011;30086;57.660;12.000;2022-08-03T07:33:00;28.13;;;7.55;;
44366;SDS011;30086;57.660;12.000;2022-08-03T07:35:26;14.95;;;7.05;;
44366;SDS011;30086;57.660;12.000;2022-08-03T07:37:52;21.60;;;8.18;;
44366;SDS011;30086;57.660;12.000;2022-08-03T07:40:18;18.27;;;8.63;;
44366;SDS011;30086;57.660;12.000;2022-08-03T07:42:44;20.35;;;8.88;;
44366;SDS011;30086;57.660;12.000;2022-08-03T07:45:10;23.58;;;9.10;;
44366;SDS011;30086;57.660;12.000;2022-08-03T07:47:36;24.73;;;9.68;;
44366;SDS011;30086;57.660;12.000;2022-08-03T07:50:03;19.83;;;9.10;;
44366;SDS011;30086;57.660;12.000;2022-08-03T07:52:29;24.58;;;9.73;;
44366;SDS011;30086;57.660;12.000;2022-08-03T07:57:39;19.38;;;9.77;;
44366;SDS011;30086;57.660;12.000;2022-08-03T08:00:06;29.55;;;9.63;;
44366;SDS011;30086;57.660;12.000;2022-08-03T08:02:33;16.73;;;8.85;;
44366;SDS011;30086;57.660;12.000;2022-08-03T08:04:59;22.17;;;9.55;;
44366;SDS011;30086;57.660;12.000;2022-08-03T08:07:25;16.08;;;8.60;;
44366;SDS011;30086;57.660;12.000;2022-08-03T08:09:51;19.40;;;9.48;;
44366;SDS011;30086;57.660;12.000;2022-08-03T08:12:17;21.88;;;9.35;;
44366;SDS011;30086;57.660;12.000;2022-08-03T08:14:46;19.08;;;8.73;;
44366;SDS011;30086;57.660;12.000;2022-08-03T08:17:12;21.77;;;8.43;;
44366;SDS011;30086;57.660;12.000;2022-08-03T08:19:38;18.20;;;8.45;;
44366;SDS011;30086;57.660;12.000;2022-08-03T08:22:04;21.33;;;8.55;;
44366;SDS011;30086;57.660;12.000;2022-08-03T08:24:33;18.30;;;7.68;;
44366;SDS011;30086;57.660;12.000;2022-08-03T08:26:59;14.27;;;7.20;;
44366;SDS011;30086;57.660;12.000;2022-08-03T08:29:25;12.80;;;7.45;;
44366;SDS011;30086;57.660;12.000;2022-08-03T08:31:51;16.83;;;7.20;;
44366;SDS011;30086;57.660;12.000;2022-08-03T08:34:17;17.27;;;7.15;;
44366;SDS011;30086;57.660;12.000;2022-08-03T08:36:43;13.30;;;7.03;;
44366;SDS011;30086;57.660;12.000;2022-08-03T08:39:09;15.77;;;6.95;;
44366;SDS011;30086;57.660;12.000;2022-08-03T08:41:36;15.88;;;6.70;;
44366;SDS011;30086;57.660;12.000;2022-08-03T08:44:02;15.25;;;6.68;;
44366;SDS011;30086;57.660;12.000;2022-08-03T08:46:31;17.30;;;6.70;;
44366;SDS011;30086;57.660;12.000;2022-08-03T08:48:58;18.52;;;6.20;;
44366;SDS011;30086;57.660;12.000;2022-08-03T08:51:26;16.42;;;6.43;;
44366;SDS011;30086;57.660;12.000;2022-08-03T08:53:52;20.15;;;6.88;;
44366;SDS011;30086;57.660;12.000;2022-08-03T08:56:19;12.60;;;5.80;;
44366;SDS011;30086;57.660;12.000;2022-08-03T08:58:47;14.40;;;6.15;;
44366;SDS011;30086;57.660;12.000;2022-08-03T09:01:13;14.52;;;6.03;;
44366;SDS011;30086;57.660;12.000;2022-08-03T09:03:42;11.07;;;6.22;;
44366;SDS011;30086;57.660;12.000;2022-08-03T09:06:09;10.98;;;6.38;;
44366;SDS011;30086;57.660;12.000;2022-08-03T09:08:35;11.50;;;6.22;;
44366;SDS011;30086;57.660;12.000;2022-08-03T09:11:01;10.80;;;5.97;;
44366;SDS011;30086;57.660;12.000;2022-08-03T09:13:27;8.55;;;6.00;;
44366;SDS011;30086;57.660;12.000;2022-08-03T09:18:39;13.98;;;5.57;;
44366;SDS011;30086;57.660;12.000;2022-08-03T09:21:13;10.77;;;5.28;;
44366;SDS011;30086;57.660;12.000;2022-08-03T09:23:47;14.73;;;5.55;;
44366;SDS011;30086;57.660;12.000;2022-08-03T09:26:26;16.77;;;5.15;;
44366;SDS011;30086;57.660;12.000;2022-08-03T09:28:56;18.83;;;5.68;;
44366;SDS011;30086;57.660;12.000;2022-08-03T09:31:36;9.93;;;4.95;;
44366;SDS011;30086;57.660;12.000;2022-08-03T09:34:06;14.30;;;5.72;;
44366;SDS011;30086;57.660;12.000;2022-08-03T09:36:37;15.93;;;5.90;;
44366;SDS011;30086;57.660;12.000;2022-08-03T09:39:04;15.55;;;6.50;;
44366;SDS011;30086;57.660;12.000;2022-08-03T09:41:30;11.48;;;5.53;;
44366;SDS011;30086;57.660;12.000;2022-08-03T09:43:57;13.73;;;5.45;;
44366;SDS011;30086;57.660;12.000;2022-08-03T09:46:23;12.85;;;5.38;;
44366;SDS011;30086;57.660;12.000;2022-08-03T09:48:49;16.40;;;5.80;;
44366;SDS011;30086;57.660;12.000;2022-08-03T09:51:15;14.57;;;5.57;;
44366;SDS011;30086;57.660;12.000;2022-08-03T09:53:43;13.90;;;5.55;;
44366;SDS011;30086;57.660;12.000;2022-08-03T09:56:09;16.55;;;5.50;;
44366;SDS011;30086;57.660;12.000;2022-08-03T09:58:43;12.70;;;5.38;;
44366;SDS011;30086;57.660;12.000;2022-08-03T10:01:10;14.57;;;5.97;;
44366;SDS011;30086;57.660;12.000;2022-08-03T10:03:37;10.70;;;5.63;;
44366;SDS011;30086;57.660;12.000;2022-08-03T10:06:16;14.95;;;6.72;;
44366;SDS011;30086;57.660;12.000;2022-08-03T10:08:43;18.35;;;6.38;;
44366;SDS011;30086;57.660;12.000;2022-08-03T10:11:09;11.07;;;6.63;;
44366;SDS011;30086;57.660;12.000;2022-08-03T10:13:35;17.80;;;6.30;;
44366;SDS011;30086;57.660;12.000;2022-08-03T10:16:02;13.82;;;6.55;;
44366;SDS011;30086;57.660;12.000;2022-08-03T10:18:30;14.55;;;8.02;;
44366;SDS011;30086;57.660;12.000;2022-08-03T10:20:58;11.40;;;6.82;;
44366;SDS011;30086;57.660;12.000;2022-08-03T10:23:25;17.75;;;7.40;;
44366;SDS011;30086;57.660;12.000;2022-08-03T10:25:54;13.15;;;7.40;;
44366;SDS011;30086;57.660;12.000;2022-08-03T10:28:23;15.52;;;8.10;;
44366;SDS011;30086;57.660;12.000;2022-08-03T10:30:50;16.55;;;8.77;;
44366;SDS011;30086;57.660;12.000;2022-08-03T10:33:21;19.48;;;9.40;;
44366;SDS011;30086;57.660;12.000;2022-08-03T10:35:52;28.23;;;9.88;;
44366;SDS011;30086;57.660;12.000;2022-08-03T10:38:20;21.27;;;9.80;;
44366;SDS011;30086;57.660;12.000;2022-08-03T10:40:47;17.30;;;8.45;;
44366;SDS011;30086;57.660;12.000;2022-08-03T10:43:19;17.17;;;9.25;;
44366;SDS011;30086;57.660;12.000;2022-08-03T10:45:46;16.40;;;8.57;;
44366;SDS011;30086;57.660;12.000;2022-08-03T10:48:12;14.20;;;8.48;;
44366;SDS011;30086;57.660;12.000;2022-08-03T10:50:39;15.77;;;9.07;;
44366;SDS011;30086;57.660;12.000;2022-08-03T10:53:07;20.58;;;9.30;;
44366;SDS011;30086;57.660;12.000;2022-08-03T11:03:28;19.80;;;10.25;;
44366;SDS011;30086;57.660;12.000;2022-08-03T11:05:55;23.10;;;10.43;;
44366;SDS011;30086;57.660;12.000;2022-08-03T11:08:38;18.15;;;10.27;;
44366;SDS011;30086;57.660;12.000;2022-08-03T11:13:55;20.35;;;10.63;;
44366;SDS011;30086;57.660;12.000;2022-08-03T11:16:22;23.42;;;9.68;;
44366;SDS011;30086;57.660;12.000;2022-08-03T11:18:58;21.77;;;9.77;;
44366;SDS011;30086;57.660;12.000;2022-08-03T11:24:09;19.10;;;9.55;;
44366;SDS011;30086;57.660;12.000;2022-08-03T11:26:35;17.95;;;8.73;;
44366;SDS011;30086;57.660;12.000;2022-08-03T11:31:46;11.73;;;7.40;;
44366;SDS011;30086;57.660;12.000;2022-08-03T11:34:13;13.68;;;6.88;;
44366;SDS011;30086;57.660;12.000;2022-08-03T11:39:37;14.93;;;6.80;;
44366;SDS011;30086;57.660;12.000;2022-08-03T11:42:48;26.20;;;7.57;;
44366;SDS011;30086;57.660;12.000;2022-08-03T11:44:54;16.40;;;7.70;;
44366;SDS011;30086;57.660;12.000;2022-08-03T11:47:21;12.93;;;6.30;;
44366;SDS011;30086;57.660;12.000;2022-08-03T11:49:49;11.65;;;7.10;;
44366;SDS011;30086;57.660;12.000;2022-08-03T11:52:16;16.70;;;7.05;;
44366;SDS011;30086;57.660;12.000;2022-08-03T11:54:43;12.60;;;6.63;;
44366;SDS011;30086;57.660;12.000;2022-08-03T11:57:09;18.05;;;6.72;;
44366;SDS011;30086;57.660;12.000;2022-08-03T11:59:36;16.60;;;7.07;;
44366;SDS011;30086;57.660;12.000;2022-08-03T12:02:09;13.90;;;6.10;;
44366;SDS011;30086;57.660;12.000;2022-08-03T12:04:51;16.95;;;6.43;;
44366;SDS011;30086;57.660;12.000;2022-08-03T12:07:17;14.63;;;6.07;;
44366;SDS011;30086;57.660;12.000;2022-08-03T12:10:03;17.13;;;6.93;;
44366;SDS011;30086;57.660;12.000;2022-08-03T12:12:29;15.55;;;6.15;;
44366;SDS011;30086;57.660;12.000;2022-08-03T12:14:55;18.60;;;6.38;;
44366;SDS011;30086;57.660;12.000;2022-08-03T12:17:22;14.40;;;6.28;;
44366;SDS011;30086;57.660;12.000;2022-08-03T12:19:48;18.13;;;6.25;;
44366;SDS011;30086;57.660;12.000;2022-08-03T12:22:14;9.23;;;5.15;;
44366;SDS011;30086;57.660;12.000;2022-08-03T12:24:41;13.85;;;5.57;;
44366;SDS011;30086;57.660;12.000;2022-08-03T12:27:07;22.50;;;6.88;;
44366;SDS011;30086;57.660;12.000;2022-08-03T12:29:33;15.07;;;6.72;;
44366;SDS011;30086;57.660;12.000;2022-08-03T12:31:59;15.75;;;7.05;;
44366;SDS011;30086;57.660;12.000;2022-08-03T12:37:11;13.23;;;5.60;;
44366;SDS011;30086;57.660;12.000;2022-08-03T12:39:37;19.27;;;6.40;;
44366;SDS011;30086;57.660;12.000;2022-08-03T12:42:03;17.08;;;5.88;;
44366;SDS011;30086;57.660;12.000;2022-08-03T12:44:29;13.10;;;6.90;;
44366;SDS011;30086;57.660;12.000;2022-08-03T12:46:56;18.67;;;5.97;;
44366;SDS011;30086;57.660;12.000;2022-08-03T12:49:23;17.08;;;6.20;;
44366;SDS011;30086;57.660;12.000;2022-08-03T12:54:19;10.25;;;5.50;;
44366;SDS011;30086;57.660;12.000;2022-08-03T12:59:25;9.95;;;5.43;;
44366;SDS011;30086;57.660;12.000;2022-08-03T13:01:51;15.23;;;6.05;;
44366;SDS011;30086;57.660;12.000;2022-08-03T13:04:26;18.73;;;5.53;;
44366;SDS011;30086;57.660;12.000;2022-08-03T13:06:56;18.67;;;6.27;;
44366;SDS011;30086;57.660;12.000;2022-08-03T13:09:24;19.45;;;6.32;;
44366;SDS011;30086;57.660;12.000;2022-08-03T13:12:05;12.63;;;5.68;;
44366;SDS011;30086;57.660;12.000;2022-08-03T13:14:31;11.95;;;6.03;;
44366;SDS011;30086;57.660;12.000;2022-08-03T13:16:57;12.93;;;6.10;;
44366;SDS011;30086;57.660;12.000;2022-08-03T13:19:24;12.43;;;4.97;;
44366;SDS011;30086;57.660;12.000;2022-08-03T13:21:50;14.82;;;6.15;;
44366;SDS011;30086;57.660;12.000;2022-08-03T13:24:16;9.52;;;5.40;;
44366;SDS011;30086;57.660;12.000;2022-08-03T13:26:43;11.50;;;5.50;;
44366;SDS011;30086;57.660;12.000;2022-08-03T13:29:09;12.20;;;5.82;;
44366;SDS011;30086;57.660;12.000;2022-08-03T13:31:35;10.88;;;5.55;;
44366;SDS011;30086;57.660;12.000;2022-08-03T13:34:01;9.02;;;5.35;;
44366;SDS011;30086;57.660;12.000;2022-08-03T13:36:27;14.63;;;5.90;;
44366;SDS011;30086;57.660;12.000;2022-08-03T13:38:53;14.43;;;6.13;;
44366;SDS011;30086;57.660;12.000;2022-08-03T13:41:19;12.13;;;5.15;;
44366;SDS011;30086;57.660;12.000;2022-08-03T13:43:45;16.38;;;5.15;;
44366;SDS011;30086;57.660;12.000;2022-08-03T13:46:11;17.23;;;5.70;;
44366;SDS011;30086;57.660;12.000;2022-08-03T13:48:37;15.77;;;6.45;;
44366;SDS011;30086;57.660;12.000;2022-08-03T13:51:03;11.55;;;4.53;;
44366;SDS011;30086;57.660;12.000;2022-08-03T13:53:29;18.42;;;4.82;;
44366;SDS011;30086;57.660;12.000;2022-08-03T13:55:55;12.13;;;5.25;;
44366;SDS011;30086;57.660;12.000;2022-08-03T13:58:24;12.48;;;5.30;;
44366;SDS011;30086;57.660;12.000;2022-08-03T14:00:51;13.88;;;4.60;;
44366;SDS011;30086;57.660;12.000;2022-08-03T14:03:17;16.15;;;4.72;;
44366;SDS011;30086;57.660;12.000;2022-08-03T14:05:46;11.73;;;4.28;;
44366;SDS011;30086;57.660;12.000;2022-08-03T14:08:12;11.35;;;4.00;;
44366;SDS011;30086;57.660;12.000;2022-08-03T14:10:40;10.32;;;3.45;;
44366;SDS011;30086;57.660;12.000;2022-08-03T14:13:06;13.27;;;3.45;;
44366;SDS011;30086;57.660;12.000;2022-08-03T14:15:33;10.02;;;3.33;;
44366;SDS011;30086;57.660;12.000;2022-08-03T14:17:59;16.80;;;4.07;;
44366;SDS011;30086;57.660;12.000;2022-08-03T14:20:26;9.70;;;3.60;;
44366;SDS011;30086;57.660;12.000;2022-08-03T14:22:53;11.45;;;3.83;;
44366;SDS011;30086;57.660;12.000;2022-08-03T14:25:20;12.80;;;3.83;;
44366;SDS011;30086;57.660;12.000;2022-08-03T14:27:46;14.57;;;3.72;;
44366;SDS011;30086;57.660;12.000;2022-08-03T14:30:12;8.32;;;3.85;;
44366;SDS011;30086;57.660;12.000;2022-08-03T14:32:38;12.70;;;4.28;;
44366;SDS011;30086;57.660;12.000;2022-08-03T14:35:05;13.23;;;3.85;;
44366;SDS011;30086;57.660;12.000;2022-08-03T14:37:31;13.40;;;4.22;;
44366;SDS011;30086;57.660;12.000;2022-08-03T14:39:57;7.97;;;3.67;;
44366;SDS011;30086;57.660;12.000;2022-08-03T14:42:23;10.73;;;3.80;;
44366;SDS011;30086;57.660;12.000;2022-08-03T14:44:49;14.95;;;3.80;;
44366;SDS011;30086;57.660;12.000;2022-08-03T14:47:16;9.60;;;3.30;;
44366;SDS011;30086;57.660;12.000;2022-08-03T14:49:42;12.15;;;4.30;;
44366;SDS011;30086;57.660;12.000;2022-08-03T14:52:08;8.82;;;3.17;;
44366;SDS011;30086;57.660;12.000;2022-08-03T14:54:34;16.45;;;3.60;;
44366;SDS011;30086;57.660;12.000;2022-08-03T14:57:00;8.98;;;2.90;;
44366;SDS011;30086;57.660;12.000;2022-08-03T14:59:26;9.50;;;4.03;;
44366;SDS011;30086;57.660;12.000;2022-08-03T15:01:52;8.77;;;2.90;;
44366;SDS011;30086;57.660;12.000;2022-08-03T15:04:19;11.63;;;3.92;;
44366;SDS011;30086;57.660;12.000;2022-08-03T15:06:45;7.55;;;2.67;;
44366;SDS011;30086;57.660;12.000;2022-08-03T15:09:11;11.43;;;3.97;;
44366;SDS011;30086;57.660;12.000;2022-08-03T15:11:37;10.45;;;3.47;;
44366;SDS011;30086;57.660;12.000;2022-08-03T15:14:03;14.20;;;3.65;;